createdAt,value
2018-02-02T00:02:02.431Z,2.00
2018-02-02T00:04:29.966Z,2.10
2018-02-02T00:06:58.294Z,1.67
2018-02-02T00:09:25.818Z,1.77
2018-02-02T00:11:54.118Z,1.90
2018-02-02T00:14:21.646Z,3.23
2018-02-02T00:16:49.940Z,1.50
2018-02-02T00:19:18.267Z,1.40
2018-02-02T00:21:45.800Z,2.00
2018-02-02T00:24:13.327Z,1.83
2018-02-02T00:26:41.634Z,1.20
2018-02-02T00:29:09.164Z,1.13
2018-02-02T00:31:37.504Z,2.40
2018-02-02T00:34:05.067Z,1.30
2018-02-02T00:36:32.602Z,1.40
2018-02-02T00:39:00.126Z,1.70
2018-02-02T00:41:28.457Z,1.83
2018-02-02T00:43:55.983Z,1.87
2018-02-02T00:46:23.511Z,1.20
2018-02-02T00:48:51.823Z,1.97
2018-02-02T00:51:25.008Z,1.30
2018-02-02T00:53:52.542Z,2.20
2018-02-02T00:56:20.101Z,1.80
2018-02-02T00:58:47.637Z,2.47
2018-02-02T01:01:15.166Z,1.20
2018-02-02T01:03:42.697Z,1.20
2018-02-02T01:06:11.004Z,1.73
2018-02-02T01:08:38.539Z,2.17
2018-02-02T01:11:06.835Z,1.57
2018-02-02T01:13:34.378Z,1.50
2018-02-02T01:16:01.910Z,2.07
2018-02-02T01:18:29.447Z,1.57
2018-02-02T01:20:57.011Z,1.33
2018-02-02T01:23:24.530Z,1.00
2018-02-02T01:25:52.070Z,1.10
2018-02-02T01:28:20.355Z,1.67
2018-02-02T01:30:48.660Z,1.10
2018-02-02T01:33:16.193Z,1.10
2018-02-02T01:35:43.774Z,1.37
2018-02-02T01:38:11.303Z,1.63
2018-02-02T01:40:39.599Z,5.70
2018-02-02T01:43:07.151Z,1.40
2018-02-02T01:45:34.680Z,1.17
2018-02-02T01:48:14.092Z,1.20
2018-02-02T01:50:41.628Z,1.20
2018-02-02T01:53:09.211Z,1.53
2018-02-02T01:55:36.739Z,1.70
2018-02-02T01:58:04.272Z,1.50
2018-02-02T02:00:32.573Z,1.00
2018-02-02T02:03:00.113Z,1.03
2018-02-02T02:05:33.687Z,1.63
2018-02-02T02:08:01.218Z,1.10
2018-02-02T02:10:28.770Z,1.13
2018-02-02T02:12:57.074Z,1.10
2018-02-02T02:15:24.607Z,1.10
2018-02-02T02:17:52.147Z,2.20
2018-02-02T02:20:19.705Z,0.80
2018-02-02T02:22:47.264Z,1.07
2018-02-02T02:25:14.795Z,1.50
2018-02-02T02:27:43.095Z,1.00
2018-02-02T02:30:10.638Z,1.10
2018-02-02T02:32:38.940Z,1.10
2018-02-02T02:35:06.498Z,1.77
2018-02-02T02:37:34.027Z,0.80
2018-02-02T02:40:01.564Z,1.03
2018-02-02T02:42:29.110Z,1.00
2018-02-02T02:44:56.644Z,1.30
2018-02-02T02:47:25.184Z,1.13
2018-02-02T02:49:52.705Z,2.27
2018-02-02T02:52:20.257Z,1.10
2018-02-02T02:54:47.786Z,1.27
2018-02-02T02:57:16.081Z,1.13
2018-02-02T02:59:43.642Z,1.33
2018-02-02T03:02:11.187Z,1.00
2018-02-02T03:04:39.520Z,0.90
2018-02-02T03:07:07.048Z,1.33
2018-02-02T03:09:34.593Z,1.03
2018-02-02T03:12:02.128Z,1.37
2018-02-02T03:14:30.450Z,0.80
2018-02-02T03:16:58.011Z,1.10
2018-02-02T03:19:25.548Z,1.07
2018-02-02T03:21:53.098Z,1.20
2018-02-02T03:24:21.398Z,1.00
2018-02-02T03:26:49.707Z,1.07
2018-02-02T03:29:17.264Z,0.90
2018-02-02T03:31:44.820Z,1.10
2018-02-02T03:34:12.406Z,2.20
2018-02-02T03:36:39.947Z,1.03
2018-02-02T03:39:07.489Z,0.80
2018-02-02T03:41:35.029Z,2.10
2018-02-02T03:44:02.559Z,1.10
2018-02-02T03:46:30.897Z,1.20
2018-02-02T03:48:58.436Z,1.30
2018-02-02T03:51:26.003Z,1.20
2018-02-02T03:53:53.547Z,1.00
2018-02-02T03:56:21.097Z,1.30
2018-02-02T03:58:49.401Z,1.27
2018-02-02T04:01:17.703Z,1.10
2018-02-02T04:03:45.271Z,0.70
2018-02-02T04:06:16.581Z,0.90
2018-02-02T04:08:44.119Z,0.97
2018-02-02T04:11:12.423Z,1.30
2018-02-02T04:13:40.725Z,0.97
2018-02-02T04:16:08.284Z,0.70
2018-02-02T04:18:35.815Z,0.80
2018-02-02T04:21:03.377Z,1.00
2018-02-02T04:23:30.907Z,1.23
2018-02-02T04:25:59.214Z,1.00
2018-02-02T04:28:26.766Z,0.80
2018-02-02T04:30:54.297Z,0.80
2018-02-02T04:33:22.595Z,0.80
2018-02-02T04:35:51.050Z,1.00
2018-02-02T04:38:19.403Z,5.10
2018-02-02T04:40:46.932Z,5.93
2018-02-02T04:43:14.506Z,1.87
2018-02-02T04:45:42.048Z,6.20
2018-02-02T04:48:09.583Z,7.80
2018-02-02T04:50:37.918Z,7.43
2018-02-02T04:53:05.455Z,9.23
2018-02-02T04:55:32.993Z,3.67
2018-02-02T04:58:00.528Z,5.20
2018-02-02T05:00:28.835Z,2.90
2018-02-02T05:02:56.391Z,3.00
2018-02-02T05:05:23.938Z,3.60
2018-02-02T05:07:52.265Z,6.13
2018-02-02T05:10:19.795Z,2.20
2018-02-02T05:12:47.332Z,4.90
2018-02-02T05:15:15.642Z,2.17
2018-02-02T05:17:43.180Z,6.17
2018-02-02T05:20:10.764Z,2.37
2018-02-02T05:22:38.408Z,2.57
2018-02-02T05:25:05.935Z,2.70
2018-02-02T05:27:33.484Z,4.00
2018-02-02T05:30:01.018Z,1.20
2018-02-02T05:32:28.578Z,2.13
2018-02-02T05:34:56.115Z,1.63
2018-02-02T05:37:23.670Z,4.13
2018-02-02T05:39:51.235Z,2.07
2018-02-02T05:42:19.643Z,3.33
2018-02-02T05:44:47.297Z,1.30
2018-02-02T05:47:14.823Z,1.70
2018-02-02T05:49:42.377Z,2.30
2018-02-02T05:52:10.674Z,1.97
2018-02-02T05:54:38.205Z,3.20
2018-02-02T05:57:06.522Z,1.30
2018-02-02T05:59:34.150Z,2.60
2018-02-02T06:02:02.477Z,2.03
2018-02-02T06:04:30.011Z,1.73
2018-02-02T06:06:57.541Z,2.73
2018-02-02T06:09:25.823Z,6.73
2018-02-02T06:11:53.374Z,6.50
2018-02-02T06:14:22.775Z,7.00
2018-02-02T06:16:50.300Z,3.10
2018-02-02T06:19:38.587Z,4.87
2018-02-02T06:22:06.887Z,4.53
2018-02-02T06:24:34.430Z,6.97
2018-02-02T06:27:02.730Z,7.23
2018-02-02T06:29:37.116Z,5.23
2018-02-02T06:32:05.441Z,6.90
2018-02-02T06:34:32.980Z,6.67
2018-02-02T06:37:05.259Z,5.20
2018-02-02T06:39:32.793Z,5.30
2018-02-02T06:42:01.094Z,7.10
2018-02-02T06:44:28.632Z,7.43
2018-02-02T06:46:56.943Z,5.10
2018-02-02T06:49:24.506Z,11.87
2018-02-02T06:51:52.055Z,6.23
2018-02-02T06:54:19.624Z,4.53
2018-02-02T06:56:50.450Z,4.77
2018-02-02T06:59:17.983Z,6.50
2018-02-02T07:01:46.279Z,7.23
2018-02-02T07:04:13.884Z,7.37
2018-02-02T07:06:41.445Z,6.10
2018-02-02T07:09:08.992Z,8.67
2018-02-02T07:11:36.581Z,6.87
2018-02-02T07:14:04.111Z,4.70
2018-02-02T07:16:31.635Z,3.47
2018-02-02T07:18:59.943Z,3.00
2018-02-02T07:21:27.482Z,5.77
2018-02-02T07:23:55.042Z,3.07
2018-02-02T07:26:22.589Z,6.57
2018-02-02T07:28:50.879Z,5.17
2018-02-02T07:31:18.406Z,4.87
2018-02-02T07:33:45.935Z,3.03
2018-02-02T07:36:13.492Z,4.43
2018-02-02T07:38:41.013Z,4.80
2018-02-02T07:41:08.579Z,3.70
2018-02-02T07:43:38.901Z,3.20
2018-02-02T07:46:06.430Z,3.80
2018-02-02T07:48:34.796Z,2.97
2018-02-02T07:51:02.339Z,2.63
2018-02-02T07:53:29.872Z,1.90
2018-02-02T07:55:57.401Z,3.90
2018-02-02T07:58:25.691Z,2.47
2018-02-02T08:00:58.870Z,4.30
2018-02-02T08:03:27.158Z,5.07
2018-02-02T08:05:54.692Z,5.80
2018-02-02T08:08:22.217Z,1.33
2018-02-02T08:10:49.758Z,4.17
2018-02-02T08:13:17.318Z,5.93
2018-02-02T08:15:44.853Z,1.90
2018-02-02T08:18:13.153Z,2.50
2018-02-02T08:20:40.687Z,3.17
2018-02-02T08:23:08.977Z,2.70
2018-02-02T08:25:36.526Z,2.30
2018-02-02T08:28:04.829Z,2.77
2018-02-02T08:30:32.374Z,2.20
2018-02-02T08:32:59.915Z,1.87
2018-02-02T08:35:28.207Z,2.50
2018-02-02T08:37:55.735Z,1.60
2018-02-02T08:40:23.262Z,2.30
2018-02-02T08:42:50.819Z,4.10
2018-02-02T08:45:18.352Z,3.53
2018-02-02T08:47:45.881Z,1.60
2018-02-02T08:50:14.186Z,1.33
2018-02-02T08:52:41.715Z,1.23
2018-02-02T08:55:09.257Z,2.40
2018-02-02T08:57:36.782Z,1.63
2018-02-02T09:00:04.341Z,3.83
2018-02-02T09:02:31.883Z,2.40
2018-02-02T09:04:59.414Z,4.90
2018-02-02T09:07:27.718Z,1.37
2018-02-02T09:09:55.251Z,2.00
2018-02-02T09:12:22.778Z,2.43
2018-02-02T09:14:50.331Z,1.40
2018-02-02T09:17:17.854Z,3.13
2018-02-02T09:19:45.390Z,1.53
2018-02-02T09:22:12.442Z,1.70
2018-02-02T09:24:40.742Z,3.53
2018-02-02T09:27:07.814Z,1.93
2018-02-02T09:29:35.346Z,3.10
2018-02-02T09:32:02.878Z,2.23
2018-02-02T09:34:30.419Z,3.83
2018-02-02T09:36:57.956Z,5.37
2018-02-02T09:39:25.514Z,2.60
2018-02-02T09:41:53.069Z,1.63
2018-02-02T09:44:20.633Z,2.57
2018-02-02T09:46:48.172Z,1.40
2018-02-02T09:49:15.714Z,3.17
2018-02-02T09:51:44.010Z,2.30
2018-02-02T09:54:11.544Z,1.50
2018-02-02T09:56:39.882Z,1.70
2018-02-02T09:59:07.407Z,1.70
2018-02-02T10:01:34.943Z,2.33
2018-02-02T10:04:03.238Z,1.33
2018-02-02T10:06:31.539Z,1.80
2018-02-02T10:08:59.072Z,3.07
2018-02-02T10:11:26.625Z,2.10
2018-02-02T10:13:54.947Z,1.70
2018-02-02T10:16:22.499Z,2.80
2018-02-02T10:18:50.043Z,1.73
2018-02-02T10:21:17.565Z,1.20
2018-02-02T10:23:45.094Z,1.63
2018-02-02T10:26:12.666Z,2.03
2018-02-02T10:28:40.202Z,3.17
2018-02-02T10:31:07.727Z,3.43
2018-02-02T10:33:36.033Z,3.40
2018-02-02T10:36:03.558Z,1.00
2018-02-02T10:38:31.874Z,3.00
2018-02-02T10:40:59.430Z,1.10
2018-02-02T10:43:27.444Z,1.73
2018-02-02T10:45:54.978Z,2.33
2018-02-02T10:48:22.620Z,2.13
2018-02-02T10:50:50.142Z,4.70
2018-02-02T10:53:18.457Z,1.40
2018-02-02T10:55:47.976Z,1.67
2018-02-02T10:58:15.523Z,1.63
2018-02-02T11:00:48.663Z,2.27
2018-02-02T11:06:22.559Z,1.97
2018-02-02T11:08:50.088Z,1.83
2018-02-02T11:11:17.616Z,1.00
2018-02-02T11:13:45.138Z,1.97
2018-02-02T11:16:12.667Z,2.57
2018-02-02T11:18:40.219Z,1.93
2018-02-02T11:21:08.506Z,1.50
2018-02-02T11:23:36.044Z,1.47
2018-02-02T11:26:04.356Z,2.07
2018-02-02T11:28:31.951Z,1.93
2018-02-02T11:30:59.522Z,1.30
2018-02-02T11:33:27.050Z,2.67
2018-02-02T11:35:54.585Z,2.10
2018-02-02T11:38:22.115Z,2.67
2018-02-02T11:41:02.787Z,2.53
2018-02-02T11:43:32.642Z,7.93
2018-02-02T11:46:00.202Z,2.40
2018-02-02T11:48:27.747Z,3.53
2018-02-02T11:50:55.284Z,2.00
2018-02-02T11:53:23.589Z,1.77
2018-02-02T11:55:51.118Z,2.70
2018-02-02T11:58:19.427Z,2.40
2018-02-02T12:00:46.971Z,3.70
2018-02-02T12:03:14.499Z,2.93
2018-02-02T12:05:42.040Z,1.50
2018-02-02T12:08:09.576Z,1.30
2018-02-02T12:10:37.111Z,1.53
2018-02-02T12:13:04.674Z,2.33
2018-02-02T12:15:32.228Z,7.13
2018-02-02T12:18:00.536Z,12.20
2018-02-02T12:20:28.078Z,23.57
2018-02-02T12:26:15.843Z,33.13
2018-02-02T12:28:44.189Z,31.00
2018-02-02T12:31:16.087Z,40.77
2018-02-02T12:33:48.191Z,42.80
2018-02-02T12:36:19.251Z,39.97
2018-02-02T12:38:47.574Z,43.30
2018-02-02T12:41:15.154Z,42.40
2018-02-02T12:43:42.715Z,39.50
2018-02-02T12:46:10.306Z,39.83
2018-02-02T12:48:40.811Z,41.90
2018-02-02T12:51:20.217Z,42.73
2018-02-02T12:53:47.766Z,41.77
2018-02-02T12:56:15.308Z,46.37
2018-02-02T12:58:43.643Z,50.07
2018-02-02T13:01:11.180Z,44.20
2018-02-02T13:03:38.727Z,41.00
2018-02-02T13:06:06.259Z,39.70
2018-02-02T13:08:34.564Z,41.67
2018-02-02T13:11:02.099Z,43.87
2018-02-02T13:13:29.685Z,53.03
2018-02-02T13:16:02.783Z,50.00
2018-02-02T13:18:30.370Z,49.07
2018-02-02T13:20:57.911Z,50.13
2018-02-02T13:23:25.493Z,41.03
2018-02-02T13:25:53.049Z,54.00
2018-02-02T13:28:20.590Z,47.53
2018-02-02T13:30:48.150Z,53.73
2018-02-02T13:33:15.683Z,51.17
2018-02-02T13:38:57.243Z,46.50
2018-02-02T13:41:26.230Z,51.77
2018-02-02T13:43:53.938Z,54.60
2018-02-02T13:46:21.999Z,55.97
2018-02-02T13:48:50.298Z,53.93
2018-02-02T13:51:19.705Z,61.13
2018-02-02T13:53:47.235Z,55.53
2018-02-02T13:56:14.808Z,49.07
2018-02-02T13:58:42.392Z,49.03
2018-02-02T14:01:16.718Z,45.73
2018-02-02T14:03:44.257Z,49.37
2018-02-02T14:06:12.560Z,56.37
2018-02-02T14:08:40.090Z,56.03
2018-02-02T14:11:08.386Z,47.63
2018-02-02T14:13:35.944Z,46.37
2018-02-02T14:16:11.487Z,44.30
2018-02-02T14:18:39.052Z,46.77
2018-02-02T14:21:07.825Z,51.10
2018-02-02T14:23:35.562Z,42.70
2018-02-02T14:26:03.099Z,45.03
2018-02-02T14:28:30.638Z,46.30
2018-02-02T14:30:58.202Z,44.37
2018-02-02T14:33:25.760Z,44.30
2018-02-02T14:35:54.347Z,45.17
2018-02-02T14:38:23.002Z,40.93
2018-02-02T14:40:51.310Z,43.03
2018-02-02T14:43:18.866Z,44.00
2018-02-02T14:45:46.410Z,42.93
2018-02-02T14:48:14.667Z,45.40
2018-02-02T14:50:43.872Z,46.67
2018-02-02T14:53:11.821Z,37.03
2018-02-02T14:55:40.640Z,46.10
2018-02-02T14:58:09.837Z,34.57
2018-02-02T15:00:37.453Z,41.03
2018-02-02T15:03:04.982Z,43.17
2018-02-02T15:05:32.524Z,45.13
2018-02-02T15:08:00.130Z,42.03
2018-02-02T15:10:28.390Z,36.07
2018-02-02T15:12:56.566Z,30.90
2018-02-02T15:15:24.133Z,30.10
2018-02-02T15:17:51.708Z,33.07
2018-02-02T15:20:19.272Z,33.77
2018-02-02T15:22:54.571Z,34.07
2018-02-02T15:25:22.131Z,33.20
2018-02-02T15:27:49.760Z,29.10
2018-02-02T15:30:21.690Z,29.77
2018-02-02T15:32:49.226Z,31.37
2018-02-02T15:35:18.183Z,31.67
2018-02-02T15:37:46.490Z,26.67
2018-02-02T15:40:14.023Z,29.43
2018-02-02T15:42:42.370Z,31.27
2018-02-02T15:45:13.859Z,26.60
2018-02-02T15:47:42.175Z,29.03
2018-02-02T15:50:11.391Z,31.43
2018-02-02T15:52:38.922Z,25.03
2018-02-02T15:55:07.323Z,27.13
2018-02-02T15:57:34.891Z,23.43
2018-02-02T16:00:02.469Z,28.90
2018-02-02T16:02:29.998Z,25.03
2018-02-02T16:04:57.534Z,28.93
2018-02-02T16:07:25.087Z,20.70
2018-02-02T16:09:52.626Z,26.23
2018-02-02T16:12:24.621Z,20.33
2018-02-02T16:14:52.168Z,25.80
2018-02-02T16:17:19.718Z,30.03
2018-02-02T16:19:48.026Z,20.47
2018-02-02T16:22:15.562Z,24.60
2018-02-02T16:24:43.130Z,23.43
2018-02-02T16:27:14.164Z,26.03
2018-02-02T16:29:43.694Z,21.60
2018-02-02T16:32:12.265Z,22.47
2018-02-02T16:34:39.810Z,24.57
2018-02-02T16:37:07.351Z,25.03
2018-02-02T16:39:35.658Z,23.80
2018-02-02T16:42:03.229Z,23.93
2018-02-02T16:44:30.784Z,23.97
2018-02-02T16:46:58.355Z,20.40
2018-02-02T16:49:25.929Z,20.33
2018-02-02T16:51:53.480Z,19.97
2018-02-02T16:54:21.019Z,20.30
2018-02-02T16:56:48.558Z,21.70
2018-02-02T16:59:16.886Z,20.37
2018-02-02T17:01:44.422Z,20.97
2018-02-02T17:04:11.974Z,21.87
2018-02-02T17:06:39.561Z,18.80
2018-02-02T17:09:07.114Z,15.77
2018-02-02T17:11:34.658Z,18.80
2018-02-02T17:14:03.481Z,15.33
2018-02-02T17:16:31.835Z,19.60
2018-02-02T17:18:59.374Z,18.60
2018-02-02T17:21:27.673Z,17.67
2018-02-02T17:23:55.214Z,15.80
2018-02-02T17:26:22.751Z,19.60
2018-02-02T17:28:51.051Z,20.07
2018-02-02T17:31:18.591Z,14.80
2018-02-02T17:33:46.188Z,17.13
2018-02-02T17:36:13.739Z,15.07
2018-02-02T17:38:41.287Z,15.63
2018-02-02T17:41:09.596Z,16.60
2018-02-02T17:43:37.139Z,16.60
2018-02-02T17:46:04.708Z,14.03
2018-02-02T17:48:32.234Z,15.63
2018-02-02T17:50:59.769Z,13.67
2018-02-02T17:53:27.310Z,14.73
2018-02-02T17:55:58.234Z,14.70
2018-02-02T17:58:26.881Z,14.33
2018-02-02T18:01:10.892Z,15.03
2018-02-02T18:03:39.432Z,15.87
2018-02-02T18:06:06.967Z,17.70
2018-02-02T18:08:36.290Z,14.30
2018-02-02T18:11:03.810Z,11.80
2018-02-02T18:13:32.326Z,14.87
2018-02-02T18:15:59.872Z,12.47
2018-02-02T18:18:28.194Z,12.40
2018-02-02T18:20:55.740Z,12.07
2018-02-02T18:23:23.270Z,12.23
2018-02-02T18:25:52.580Z,17.13
2018-02-02T18:28:20.134Z,12.00
2018-02-02T18:30:48.446Z,13.40
2018-02-02T18:33:15.975Z,15.60
2018-02-02T18:35:44.271Z,13.70
2018-02-02T18:38:11.803Z,12.37
2018-02-02T18:40:40.126Z,12.57
2018-02-02T18:43:08.457Z,14.03
2018-02-02T18:45:36.809Z,11.57
2018-02-02T18:48:05.246Z,13.23
2018-02-02T18:50:32.790Z,11.53
2018-02-02T18:53:01.090Z,12.10
2018-02-02T18:55:30.606Z,15.00
2018-02-02T18:57:58.156Z,10.40
2018-02-02T19:00:26.330Z,13.00
2018-02-02T19:02:54.933Z,9.27
2018-02-02T19:05:22.470Z,10.27
2018-02-02T19:07:50.056Z,11.53
2018-02-02T19:10:17.620Z,12.20
2018-02-02T19:12:45.182Z,9.33
2018-02-02T19:15:12.747Z,11.77
2018-02-02T19:17:40.308Z,12.03
2018-02-02T19:20:07.833Z,8.03
2018-02-02T19:22:35.409Z,9.70
2018-02-02T19:25:02.948Z,12.80
2018-02-02T19:27:31.541Z,10.63
2018-02-02T19:29:59.110Z,10.60
2018-02-02T19:32:26.632Z,9.67
2018-02-02T19:34:54.955Z,14.63
2018-02-02T19:37:22.545Z,16.33
2018-02-02T19:39:51.020Z,11.60
2018-02-02T19:42:18.624Z,10.30
2018-02-02T19:44:46.206Z,7.90
2018-02-02T19:47:14.729Z,14.47
2018-02-02T19:49:42.254Z,9.83
2018-02-02T19:52:09.826Z,8.83
2018-02-02T19:54:37.475Z,11.57
2018-02-02T19:57:15.568Z,10.30
2018-02-02T19:59:43.211Z,12.73
2018-02-02T20:02:12.428Z,8.20
2018-02-02T20:04:40.034Z,10.10
2018-02-02T20:07:08.481Z,12.07
2018-02-02T20:09:36.378Z,9.43
2018-02-02T20:12:04.112Z,8.53
2018-02-02T20:14:31.682Z,10.83
2018-02-02T20:17:01.536Z,9.80
2018-02-02T20:19:29.886Z,9.70
2018-02-02T20:21:57.447Z,7.77
2018-02-02T20:24:28.682Z,10.90
2018-02-02T20:26:56.202Z,8.50
2018-02-02T20:29:24.513Z,9.10
2018-02-02T20:31:52.091Z,9.20
2018-02-02T20:34:20.634Z,9.27
2018-02-02T20:36:48.249Z,6.97
2018-02-02T20:39:15.793Z,7.67
2018-02-02T20:41:44.382Z,10.70
2018-02-02T20:44:11.922Z,11.97
2018-02-02T20:46:39.469Z,11.00
2018-02-02T20:49:07.982Z,7.50
2018-02-02T20:51:35.676Z,9.90
2018-02-02T20:54:06.827Z,6.97
2018-02-02T20:56:34.355Z,9.03
2018-02-02T20:59:02.903Z,6.60
2018-02-02T21:01:30.520Z,6.67
2018-02-02T21:03:58.836Z,8.17
2018-02-02T21:06:26.374Z,6.73
2018-02-02T21:08:55.910Z,7.63
2018-02-02T21:11:23.435Z,9.60
2018-02-02T21:13:51.761Z,8.80
2018-02-02T21:16:19.334Z,6.00
2018-02-02T21:18:47.887Z,6.43
2018-02-02T21:21:15.419Z,9.63
2018-02-02T21:23:43.758Z,7.80
2018-02-02T21:26:13.228Z,6.20
2018-02-02T21:28:40.766Z,7.00
2018-02-02T21:31:09.123Z,6.77
2018-02-02T21:33:36.672Z,8.60
2018-02-02T21:36:04.212Z,5.90
2018-02-02T21:38:31.743Z,6.53
2018-02-02T21:40:59.290Z,6.30
2018-02-02T21:43:27.609Z,5.77
2018-02-02T21:45:55.150Z,6.50
2018-02-02T21:48:22.680Z,5.97
2018-02-02T21:50:50.981Z,6.93
2018-02-02T21:53:18.511Z,4.97
2018-02-02T21:55:46.851Z,6.00
2018-02-02T21:58:14.378Z,6.40
2018-02-02T22:00:41.907Z,6.27
2018-02-02T22:03:09.443Z,6.03
2018-02-02T22:05:36.974Z,5.80
2018-02-02T22:08:04.528Z,6.67
2018-02-02T22:10:32.054Z,5.03
2018-02-02T22:13:00.347Z,4.33
2018-02-02T22:15:28.634Z,5.67
2018-02-02T22:17:56.859Z,5.30
2018-02-02T22:20:24.423Z,5.17
2018-02-02T22:22:52.889Z,4.43
2018-02-02T22:25:20.423Z,4.30
2018-02-02T22:27:47.962Z,6.03
2018-02-02T22:30:16.262Z,5.30
2018-02-02T22:32:43.810Z,3.83
2018-02-02T22:35:11.358Z,4.43
2018-02-02T22:37:38.890Z,5.40
2018-02-02T22:40:06.415Z,4.33
2018-02-02T22:42:33.943Z,4.53
2018-02-02T22:45:01.526Z,4.87
2018-02-02T22:47:29.055Z,5.27
2018-02-02T22:49:57.351Z,4.80
2018-02-02T22:52:24.885Z,4.63
2018-02-02T22:54:53.178Z,5.90
2018-02-02T22:57:20.742Z,5.40
2018-02-02T22:59:48.269Z,6.13
2018-02-02T23:02:16.565Z,5.50
2018-02-02T23:04:44.858Z,5.20
2018-02-02T23:07:12.429Z,3.70
2018-02-02T23:09:39.974Z,4.77
2018-02-02T23:12:07.503Z,3.63
2018-02-02T23:14:35.030Z,3.90
2018-02-02T23:17:02.598Z,3.37
2018-02-02T23:19:30.131Z,5.10
2018-02-02T23:21:57.661Z,3.17
2018-02-02T23:24:25.960Z,4.63
2018-02-02T23:26:53.496Z,5.27
2018-02-02T23:29:21.822Z,4.27
2018-02-02T23:31:49.346Z,3.90
2018-02-02T23:34:16.895Z,4.60
2018-02-02T23:36:45.249Z,3.50
2018-02-02T23:39:12.777Z,3.90
2018-02-02T23:41:40.299Z,5.10
2018-02-02T23:44:07.902Z,4.63
2018-02-02T23:46:35.426Z,3.00
2018-02-02T23:49:02.956Z,3.70
2018-02-02T23:51:31.290Z,4.33
2018-02-02T23:53:58.850Z,3.10
2018-02-02T23:56:26.374Z,2.70
2018-02-02T23:58:54.668Z,4.10
